Time;durP1;ratioP1;P1;durP2;ratioP2;P2;SDS_P1;SDS_P2;PMS_P1;PMS_P2;Temp;Humidity;BMP_temperature;BMP_pressure;BME280_temperature;BME280_humidity;BME280_pressure;Samples;Min_cycle;Max_cycle;Signal;HPM_P1;HPM_P2
2023/02/02 00:00:05;;;;;;;5.50;3.03;;;2.50;99.90;;;;;;4179132;28;20273;-65
2023/02/02 00:02:07;;;;;;;4.70;2.83;;;2.50;99.90;;;;;;4158547;28;20286;-66
2023/02/02 00:04:09;;;;;;;3.67;2.13;;;2.50;99.90;;;;;;4179297;28;20312;-64
2023/02/02 00:06:10;;;;;;;4.03;2.73;;;2.60;99.90;;;;;;4177872;28;20741;-63
2023/02/02 00:08:12;;;;;;;5.40;3.10;;;2.50;99.90;;;;;;4179338;28;20286;-64
2023/02/02 00:10:13;;;;;;;5.67;3.07;;;2.60;99.90;;;;;;4178322;28;20300;-63
2023/02/02 00:12:14;;;;;;;7.83;2.77;;;2.60;99.90;;;;;;4179390;28;20282;-62
2023/02/02 00:14:17;;;;;;;4.93;2.60;;;2.60;99.90;;;;;;4163017;28;20711;-63
2023/02/02 00:16:27;;;;;;;4.07;3.03;;;2.60;99.90;;;;;;4162174;28;20336;-63
2023/02/02 00:18:28;;;;;;;5.17;3.03;;;2.60;99.90;;;;;;4177224;28;20270;-63
2023/02/02 00:20:29;;;;;;;2.70;2.47;;;2.60;99.90;;;;;;4178908;28;20328;-62
2023/02/02 00:22:30;;;;;;;5.10;2.43;;;2.60;99.90;;;;;;4177350;28;20274;-63
2023/02/02 00:24:32;;;;;;;5.30;2.53;;;2.60;99.90;;;;;;4177041;28;20278;-65
2023/02/02 00:26:34;;;;;;;3.73;2.63;;;2.60;99.90;;;;;;4161547;28;20259;-64
2023/02/02 00:28:35;;;;;;;3.53;2.33;;;2.60;99.90;;;;;;4163456;28;20266;-62
2023/02/02 00:30:36;;;;;;;4.97;2.80;;;2.70;99.90;;;;;;4174885;28;20329;-62
2023/02/02 00:32:39;;;;;;;4.63;2.53;;;2.70;99.90;;;;;;4161826;28;20267;-63
2023/02/02 00:34:40;;;;;;;3.50;2.30;;;2.70;99.90;;;;;;4162262;28;20270;-63
2023/02/02 00:36:43;;;;;;;4.57;2.50;;;2.70;99.90;;;;;;4161373;28;20309;-63
2023/02/02 00:38:45;;;;;;;3.33;2.10;;;2.60;99.90;;;;;;4162030;28;20305;-64
2023/02/02 00:40:46;;;;;;;2.77;2.10;;;2.60;99.90;;;;;;4160902;28;20267;-65
2023/02/02 00:42:49;;;;;;;3.57;2.23;;;2.60;99.90;;;;;;4162407;28;20793;-67
2023/02/02 00:47:10;;;;;;;3.63;2.33;;;2.60;99.90;;;;;;4179338;28;20290;-63
2023/02/02 00:49:11;;;;;;;4.33;2.37;;;2.60;99.90;;;;;;4177562;28;20270;-64
2023/02/02 00:51:12;;;;;;;4.80;2.70;;;2.50;99.90;;;;;;4179144;28;20308;-67
2023/02/02 00:53:13;;;;;;;3.57;2.17;;;2.50;99.90;;;;;;4177662;28;20262;-63
2023/02/02 00:55:15;;;;;;;4.73;2.73;;;2.50;99.90;;;;;;4178360;28;20278;-62
2023/02/02 00:57:16;;;;;;;3.30;2.20;;;2.50;99.90;;;;;;4176491;28;20619;-63
2023/02/02 00:59:17;;;;;;;10.43;2.70;;;2.50;99.90;;;;;;4170582;28;20332;-64
2023/02/02 01:01:21;;;;;;;4.83;2.40;;;2.50;99.90;;;;;;4174066;28;20261;-65
2023/02/02 01:03:22;;;;;;;5.17;2.67;;;2.40;99.90;;;;;;4178051;28;20262;-64
2023/02/02 01:05:23;;;;;;;4.27;2.80;;;2.40;99.90;;;;;;4177021;28;20833;-63
2023/02/02 01:07:24;;;;;;;3.77;2.63;;;2.40;99.90;;;;;;4177051;28;20294;-63
2023/02/02 01:09:25;;;;;;;3.43;2.33;;;2.40;99.90;;;;;;4177751;28;20292;-63
2023/02/02 01:11:26;;;;;;;6.00;2.43;;;2.40;99.90;;;;;;4177263;28;20296;-62
2023/02/02 01:13:28;;;;;;;4.80;2.80;;;2.40;99.90;;;;;;4160482;28;20318;-62
2023/02/02 01:15:29;;;;;;;3.83;2.50;;;2.40;99.90;;;;;;4177292;28;20274;-63
2023/02/02 01:17:32;;;;;;;9.63;5.53;;;2.40;99.90;;;;;;4177826;28;20312;-62
2023/02/02 01:19:33;;;;;;;6.03;3.53;;;2.40;99.90;;;;;;4176847;28;20274;-63
2023/02/02 01:21:34;;;;;;;5.07;3.20;;;2.40;99.90;;;;;;4178439;28;20275;-63
2023/02/02 01:23:37;;;;;;;4.43;3.30;;;2.40;99.90;;;;;;4176423;28;20681;-63
2023/02/02 01:25:38;;;;;;;6.17;3.83;;;2.30;99.90;;;;;;4178886;28;20265;-63
2023/02/02 01:27:39;;;;;;;6.97;4.30;;;2.30;99.90;;;;;;4174159;28;20310;-62
2023/02/02 01:29:40;;;;;;;7.40;4.87;;;2.30;99.90;;;;;;4161934;28;20345;-63
2023/02/02 01:31:41;;;;;;;5.57;3.30;;;2.30;99.90;;;;;;4160665;28;20278;-62
2023/02/02 01:33:44;;;;;;;7.10;4.07;;;2.30;99.90;;;;;;4170352;28;20918;-68
2023/02/02 01:35:54;;;;;;;6.70;3.77;;;2.30;99.90;;;;;;4176382;28;20262;-63
2023/02/02 01:37:55;;;;;;;6.97;3.77;;;2.20;99.90;;;;;;4177850;28;20795;-67
2023/02/02 01:39:56;;;;;;;5.73;3.50;;;2.20;99.90;;;;;;4175686;28;20363;-63
2023/02/02 01:41:57;;;;;;;5.00;2.90;;;2.20;99.90;;;;;;4177388;28;20278;-63
2023/02/02 01:44:25;;;;;;;4.47;2.93;;;2.20;99.90;;;;;;4177856;28;20319;-63
2023/02/02 01:46:32;;;;;;;5.10;2.70;;;2.20;99.90;;;;;;4177416;28;20320;-67
2023/02/02 01:48:34;;;;;;;5.87;3.47;;;2.10;99.90;;;;;;4177317;28;20289;-63
2023/02/02 01:50:35;;;;;;;5.87;2.90;;;2.10;99.90;;;;;;4176862;28;21083;-68
2023/02/02 01:52:39;;;;;;;3.97;2.70;;;2.00;99.90;;;;;;4177297;28;20270;-62
2023/02/02 01:54:48;;;;;;;4.43;3.00;;;2.00;99.90;;;;;;4177536;28;20788;-66
2023/02/02 01:56:56;;;;;;;5.07;2.70;;;2.00;99.90;;;;;;4177595;28;20657;-62
2023/02/02 01:58:58;;;;;;;5.53;2.90;;;2.00;99.90;;;;;;4175206;28;20277;-63
2023/02/02 02:00:59;;;;;;;5.27;3.50;;;1.90;99.90;;;;;;4176219;28;20761;-63
2023/02/02 02:03:06;;;;;;;4.30;2.63;;;1.80;99.90;;;;;;4172878;28;20689;-66
2023/02/02 02:05:09;;;;;;;4.30;2.90;;;1.80;99.90;;;;;;4177761;28;20823;-62
2023/02/02 02:07:11;;;;;;;4.40;3.17;;;1.80;99.90;;;;;;4176339;28;20289;-65
2023/02/02 02:09:12;;;;;;;3.70;2.07;;;1.70;99.90;;;;;;4177683;28;20427;-63
2023/02/02 02:11:13;;;;;;;2.60;2.10;;;1.70;99.90;;;;;;4176852;28;20278;-64
2023/02/02 02:13:15;;;;;;;4.40;2.10;;;1.70;99.90;;;;;;4162486;28;20770;-63
2023/02/02 02:17:36;;;;;;;7.03;3.63;;;1.70;99.90;;;;;;4170035;28;20281;-64
2023/02/02 02:27:13;;;;;;;2.63;2.10;;;1.80;99.90;;;;;;4177558;28;20270;-63
2023/02/02 02:29:52;;;;;;;4.30;2.20;;;1.80;99.90;;;;;;4176786;28;20587;-63
2023/02/02 02:32:31;;;;;;;2.93;2.03;;;1.80;99.90;;;;;;4176628;28;20021;-63
2023/02/02 02:34:44;;;;;;;3.13;2.40;;;1.80;99.90;;;;;;4177783;28;20331;-63
2023/02/02 02:36:45;;;;;;;4.20;2.20;;;1.70;99.90;;;;;;4163904;28;20327;-63
2023/02/02 02:39:09;;;;;;;3.90;2.37;;;1.50;99.90;;;;;;4161255;28;20297;-63
2023/02/02 02:41:22;;;;;;;3.33;2.00;;;1.40;99.90;;;;;;4160106;28;20266;-62
2023/02/02 02:43:30;;;;;;;4.23;2.30;;;1.40;99.90;;;;;;4160517;28;20275;-63
2023/02/02 02:45:32;;;;;;;4.90;3.27;;;1.30;99.90;;;;;;4159941;28;20705;-63
2023/02/02 02:47:34;;;;;;;3.93;2.80;;;1.30;99.90;;;;;;4162765;28;20333;-63
2023/02/02 02:49:46;;;;;;;5.87;2.97;;;1.20;99.90;;;;;;4162200;28;20335;-62
2023/02/02 02:51:49;;;;;;;2.63;2.10;;;1.20;99.90;;;;;;4164294;28;20676;-63
2023/02/02 02:53:50;;;;;;;4.93;1.73;;;1.20;99.90;;;;;;4163091;28;20270;-63
2023/02/02 02:56:19;;;;;;;4.63;2.27;;;1.20;99.90;;;;;;4164239;28;20286;-63
2023/02/02 02:58:35;;;;;;;2.30;1.80;;;1.20;99.90;;;;;;4162615;28;20279;-63
2023/02/02 03:00:49;;;;;;;1.77;1.50;;;1.20;99.90;;;;;;4165068;28;20333;-67
2023/02/02 03:03:19;;;;;;;3.70;2.47;;;1.30;99.90;;;;;;4162886;28;20893;-64
2023/02/02 03:05:51;;;;;;;3.60;1.88;;;1.30;99.90;;;;;;4163931;28;20266;-62
2023/02/02 03:08:13;;;;;;;5.93;2.57;;;1.30;99.90;;;;;;4163698;28;20099;-63
2023/02/02 03:10:17;;;;;;;4.13;1.80;;;1.40;99.90;;;;;;4162886;28;20337;-68
2023/02/02 03:12:19;;;;;;;4.73;1.77;;;1.40;99.90;;;;;;4162562;28;20696;-62
2023/02/02 03:14:20;;;;;;;3.53;2.20;;;1.40;99.90;;;;;;4163798;28;20750;-67
2023/02/02 03:16:21;;;;;;;9.80;5.70;;;1.40;99.90;;;;;;4161957;28;20278;-68
2023/02/02 03:18:26;;;;;;;4.57;3.33;;;1.40;99.90;;;;;;4163470;28;20279;-63
2023/02/02 03:20:27;;;;;;;12.30;5.37;;;1.40;99.90;;;;;;4162604;28;20325;-63
2023/02/02 03:22:28;;;;;;;10.07;4.33;;;1.30;99.90;;;;;;4163553;28;20275;-63
2023/02/02 03:24:29;;;;;;;9.23;4.73;;;1.20;99.90;;;;;;4144906;28;20288;-64
2023/02/02 03:26:30;;;;;;;15.53;5.67;;;1.30;99.90;;;;;;4163898;28;20814;-63
2023/02/02 03:28:33;;;;;;;15.50;6.23;;;1.20;99.90;;;;;;4162234;28;20325;-62
2023/02/02 03:30:35;;;;;;;15.40;6.80;;;1.20;99.90;;;;;;4163329;28;20267;-67
2023/02/02 03:32:37;;;;;;;13.73;5.70;;;1.20;99.90;;;;;;4161759;28;20309;-63
2023/02/02 03:34:38;;;;;;;10.33;4.70;;;1.20;99.90;;;;;;4145160;28;20710;-68
2023/02/02 03:36:39;;;;;;;7.97;3.70;;;1.10;99.90;;;;;;4162391;28;20332;-63
2023/02/02 03:38:41;;;;;;;9.80;4.03;;;1.10;99.90;;;;;;4162844;28;20782;-62
2023/02/02 03:40:42;;;;;;;7.50;3.90;;;1.10;99.90;;;;;;4163085;28;20251;-63
2023/02/02 03:42:43;;;;;;;10.00;4.47;;;1.10;99.90;;;;;;4162203;28;20267;-68
2023/02/02 03:44:44;;;;;;;8.43;4.57;;;1.10;99.90;;;;;;4163213;28;20267;-63
2023/02/02 03:46:45;;;;;;;10.00;5.37;;;1.10;99.90;;;;;;4161981;28;20313;-62
2023/02/02 03:48:46;;;;;;;9.73;5.30;;;1.10;99.90;;;;;;4167059;28;20302;-63
2023/02/02 03:50:47;;;;;;;8.13;4.40;;;1.10;99.90;;;;;;4178511;28;20270;-62
2023/02/02 03:52:48;;;;;;;6.93;4.10;;;1.00;99.90;;;;;;4179248;28;20816;-62
2023/02/02 03:54:50;;;;;;;8.43;4.63;;;1.00;99.90;;;;;;4178717;28;20296;-66
2023/02/02 03:56:51;;;;;;;6.70;4.37;;;1.00;99.90;;;;;;4179421;28;20352;-62
2023/02/02 03:58:52;;;;;;;9.03;4.70;;;1.00;99.90;;;;;;4176217;28;20418;-62
2023/02/02 04:00:58;;;;;;;7.60;4.20;;;1.00;99.90;;;;;;4175543;28;20499;-63
2023/02/02 04:02:59;;;;;;;6.97;4.10;;;1.00;99.90;;;;;;4175605;28;20270;-62
2023/02/02 04:05:00;;;;;;;6.87;4.67;;;0.90;99.90;;;;;;4162678;28;20270;-62
2023/02/02 04:07:01;;;;;;;8.93;4.27;;;1.00;99.90;;;;;;4173385;28;20282;-62
2023/02/02 04:09:02;;;;;;;8.67;4.30;;;1.00;99.90;;;;;;4171695;28;20295;-63
2023/02/02 04:11:03;;;;;;;5.87;4.00;;;1.00;99.90;;;;;;4163413;28;20317;-63
2023/02/02 04:13:05;;;;;;;6.37;3.97;;;1.00;99.90;;;;;;4161245;28;20293;-63
2023/02/02 04:15:06;;;;;;;7.30;4.10;;;1.00;99.90;;;;;;4177471;28;20290;-63
2023/02/02 04:17:07;;;;;;;6.80;4.10;;;1.00;99.90;;;;;;4178214;28;20270;-63
2023/02/02 04:19:09;;;;;;;5.53;3.80;;;1.00;99.90;;;;;;4179368;28;20258;-62
2023/02/02 04:21:10;;;;;;;8.50;3.60;;;1.00;99.90;;;;;;4163612;28;20608;-62
2023/02/02 04:23:11;;;;;;;4.17;3.20;;;1.00;99.90;;;;;;4161692;28;20634;-62
2023/02/02 04:25:12;;;;;;;6.00;3.03;;;1.00;99.90;;;;;;4161522;28;20329;-62
2023/02/02 04:27:13;;;;;;;6.20;2.77;;;1.00;99.90;;;;;;4161937;28;20356;-63
2023/02/02 04:29:15;;;;;;;5.40;3.03;;;1.00;99.90;;;;;;4161157;28;20835;-62
2023/02/02 04:31:16;;;;;;;4.40;2.70;;;1.00;99.90;;;;;;4162281;28;20333;-63
2023/02/02 04:33:17;;;;;;;5.60;3.43;;;1.10;99.90;;;;;;4160294;28;20747;-62
2023/02/02 04:35:18;;;;;;;4.87;2.73;;;1.00;99.90;;;;;;4161877;28;20329;-66
2023/02/02 04:37:20;;;;;;;4.67;2.90;;;1.10;99.90;;;;;;4160780;28;20305;-63
2023/02/02 04:39:21;;;;;;;6.97;3.33;;;1.10;99.90;;;;;;4161166;28;20262;-65
2023/02/02 04:41:22;;;;;;;5.13;3.37;;;1.10;99.90;;;;;;4161255;28;20847;-63
2023/02/02 04:43:23;;;;;;;5.13;3.30;;;1.10;99.90;;;;;;4163392;28;20797;-63
2023/02/02 04:45:24;;;;;;;5.13;3.50;;;1.10;99.90;;;;;;4160238;28;20263;-62
2023/02/02 04:47:25;;;;;;;6.80;3.63;;;1.10;99.90;;;;;;4159269;28;20706;-61
2023/02/02 04:49:26;;;;;;;7.97;3.90;;;1.20;99.90;;;;;;4160029;28;20333;-62
2023/02/02 04:51:28;;;;;;;6.43;3.93;;;1.20;99.90;;;;;;4177283;28;20664;-65
2023/02/02 04:53:29;;;;;;;6.43;3.90;;;1.20;99.90;;;;;;4178341;28;20321;-61
2023/02/02 04:55:34;;;;;;;10.00;4.70;;;1.20;99.90;;;;;;4177570;28;20258;-62
2023/02/02 04:57:35;;;;;;;5.37;3.73;;;1.20;99.90;;;;;;4176536;28;20308;-62
2023/02/02 04:59:36;;;;;;;5.53;3.77;;;1.10;99.90;;;;;;4174920;28;20667;-62
2023/02/02 05:01:37;;;;;;;10.03;4.53;;;1.10;99.90;;;;;;4175915;28;20808;-63
2023/02/02 05:03:38;;;;;;;7.97;4.10;;;1.00;99.90;;;;;;4165915;28;20275;-62
2023/02/02 05:05:40;;;;;;;8.00;4.97;;;1.00;99.90;;;;;;4171225;28;20269;-63
2023/02/02 05:07:41;;;;;;;8.93;4.90;;;1.00;99.90;;;;;;4177028;28;20388;-63
2023/02/02 05:09:42;;;;;;;7.80;4.33;;;1.00;99.90;;;;;;4170921;28;20816;-62
2023/02/02 05:11:43;;;;;;;7.37;4.67;;;1.00;99.90;;;;;;4170809;28;20352;-62
2023/02/02 05:13:46;;;;;;;8.50;4.53;;;1.00;99.90;;;;;;4176262;28;20344;-66
2023/02/02 05:15:47;;;;;;;8.10;3.80;;;1.00;99.90;;;;;;4174196;28;20262;-62
2023/02/02 05:17:49;;;;;;;4.63;3.33;;;1.10;99.90;;;;;;4166465;28;20807;-62
2023/02/02 05:19:50;;;;;;;5.77;3.50;;;1.10;99.90;;;;;;4177668;28;21088;-62
2023/02/02 05:21:51;;;;;;;4.90;3.73;;;1.00;99.90;;;;;;4176579;28;20266;-62
2023/02/02 05:23:52;;;;;;;5.33;3.60;;;1.10;99.90;;;;;;4159058;28;20313;-63
2023/02/02 05:25:54;;;;;;;8.50;4.70;;;1.10;99.90;;;;;;4176048;28;20357;-63
2023/02/02 05:27:55;;;;;;;8.77;6.00;;;1.10;99.90;;;;;;4177169;28;20301;-64
2023/02/02 05:29:56;;;;;;;14.40;9.30;;;1.10;99.90;;;;;;4177179;28;20632;-64
2023/02/02 05:31:57;;;;;;;11.13;8.07;;;1.10;99.90;;;;;;4178147;28;20348;-65
2023/02/02 05:33:59;;;;;;;8.63;6.53;;;1.10;99.90;;;;;;4165859;28;20333;-63
2023/02/02 05:36:00;;;;;;;8.20;6.07;;;1.00;99.90;;;;;;4161346;28;20255;-62
2023/02/02 05:38:01;;;;;;;5.53;3.80;;;1.00;99.90;;;;;;4159777;28;20275;-62
2023/02/02 05:40:03;;;;;;;5.83;3.53;;;1.00;99.90;;;;;;4161223;28;20255;-62
2023/02/02 05:42:04;;;;;;;5.23;4.00;;;1.00;99.90;;;;;;4165342;28;20281;-61
2023/02/02 05:44:05;;;;;;;7.07;4.70;;;1.00;99.90;;;;;;4176675;28;20702;-65
2023/02/02 05:46:06;;;;;;;10.00;5.47;;;1.00;99.90;;;;;;4177276;28;20308;-60
2023/02/02 05:48:15;;;;;;;9.37;6.00;;;1.00;99.90;;;;;;4176555;28;20360;-62
2023/02/02 05:50:16;;;;;;;9.93;5.97;;;1.00;99.90;;;;;;4166398;28;20632;-62
2023/02/02 05:52:19;;;;;;;12.07;6.30;;;0.90;99.90;;;;;;4159747;28;20318;-62
2023/02/02 05:54:21;;;;;;;13.50;7.87;;;0.80;99.90;;;;;;4161248;28;20297;-62
2023/02/02 05:56:22;;;;;;;15.67;6.87;;;0.70;99.90;;;;;;4159591;28;20325;-61
2023/02/02 05:58:23;;;;;;;9.93;6.70;;;0.70;99.90;;;;;;4160963;28;20337;-62
2023/02/02 06:00:24;;;;;;;13.07;6.83;;;0.70;99.90;;;;;;4159988;28;20259;-62
2023/02/02 06:02:25;;;;;;;8.80;6.00;;;0.70;99.90;;;;;;4161128;28;20266;-63
2023/02/02 06:04:26;;;;;;;13.73;7.30;;;0.60;99.90;;;;;;4159959;28;20263;-62
2023/02/02 06:06:27;;;;;;;15.67;9.37;;;0.60;99.90;;;;;;4160782;28;20259;-61
2023/02/02 06:08:29;;;;;;;11.27;6.57;;;0.50;99.90;;;;;;4160031;28;20321;-62
2023/02/02 06:10:30;;;;;;;10.33;5.87;;;0.50;99.90;;;;;;4160722;28;20765;-61
2023/02/02 06:12:31;;;;;;;11.23;6.97;;;0.50;99.90;;;;;;4159635;28;20263;-63
2023/02/02 06:14:32;;;;;;;8.97;6.20;;;0.50;99.90;;;;;;4142167;28;20279;-61
2023/02/02 06:16:34;;;;;;;19.63;9.77;;;0.60;99.90;;;;;;4160595;28;20405;-65
2023/02/02 06:18:35;;;;;;;20.60;10.40;;;0.60;99.90;;;;;;4160238;28;20275;-63
2023/02/02 06:20:37;;;;;;;18.47;10.30;;;0.60;99.90;;;;;;4160747;28;20263;-62
2023/02/02 06:22:38;;;;;;;18.00;9.70;;;0.60;99.90;;;;;;4161546;28;20275;-61
2023/02/02 06:24:39;;;;;;;16.47;8.33;;;0.60;99.90;;;;;;4164149;28;20346;-62
2023/02/02 06:26:40;;;;;;;13.97;7.57;;;0.70;99.90;;;;;;4162580;28;20316;-63
2023/02/02 06:28:42;;;;;;;14.63;7.83;;;0.70;99.90;;;;;;4163580;28;20766;-66
2023/02/02 06:30:43;;;;;;;14.40;7.90;;;0.60;99.90;;;;;;4162783;28;20309;-66
2023/02/02 06:32:44;;;;;;;14.30;7.70;;;0.70;99.90;;;;;;4164157;28;20643;-62
2023/02/02 06:34:46;;;;;;;12.67;7.27;;;0.80;99.90;;;;;;4162266;28;20283;-65
2023/02/02 06:36:47;;;;;;;17.97;7.87;;;0.80;99.90;;;;;;4163413;28;20279;-61
2023/02/02 06:38:53;;;;;;;12.90;7.57;;;0.80;99.90;;;;;;4163476;28;20286;-63
2023/02/02 06:40:54;;;;;;;12.90;7.20;;;0.80;99.90;;;;;;4165000;28;20283;-62
2023/02/02 06:42:57;;;;;;;11.73;6.67;;;0.90;99.90;;;;;;4174437;28;20254;-61
2023/02/02 06:44:58;;;;;;;14.00;7.83;;;0.90;99.90;;;;;;4179908;28;20391;-63
2023/02/02 06:46:59;;;;;;;14.87;8.50;;;0.90;99.90;;;;;;4179174;28;20328;-65
2023/02/02 06:49:01;;;;;;;14.10;8.93;;;0.90;99.90;;;;;;4163631;28;20302;-63
2023/02/02 06:51:04;;;;;;;19.97;10.37;;;0.90;99.90;;;;;;4162678;28;20278;-67
2023/02/02 06:53:05;;;;;;;23.73;11.90;;;0.90;99.90;;;;;;4166400;28;20343;-67
2023/02/02 06:55:06;;;;;;;23.73;12.83;;;0.80;99.90;;;;;;4180154;28;20274;-64
2023/02/02 06:57:08;;;;;;;20.97;10.47;;;0.80;99.90;;;;;;4177740;28;20320;-66
2023/02/02 06:59:09;;;;;;;106.10;54.60;;;0.80;99.90;;;;;;4179130;28;20278;-60
2023/02/02 07:01:12;;;;;;;28.37;15.07;;;0.90;99.90;;;;;;4177324;28;20320;-61
2023/02/02 07:03:14;;;;;;;24.10;12.93;;;0.90;99.90;;;;;;4172943;28;20274;-62
2023/02/02 07:05:18;;;;;;;23.70;13.17;;;0.90;99.90;;;;;;4173105;28;20738;-65
2023/02/02 07:07:19;;;;;;;13.73;8.37;;;1.00;99.90;;;;;;4179804;28;20340;-66
2023/02/02 07:09:20;;;;;;;16.40;9.03;;;0.90;99.90;;;;;;4178495;28;20340;-62
2023/02/02 07:11:21;;;;;;;17.70;10.67;;;0.90;99.90;;;;;;4178180;28;20351;-61
2023/02/02 07:13:22;;;;;;;15.73;9.10;;;0.80;99.90;;;;;;4177701;28;20351;-62
2023/02/02 07:15:24;;;;;;;18.83;11.80;;;0.80;99.90;;;;;;4179583;28;20306;-62
2023/02/02 07:17:25;;;;;;;16.93;10.30;;;0.80;99.90;;;;;;4174245;28;20288;-61
2023/02/02 07:19:26;;;;;;;17.57;10.60;;;0.90;99.90;;;;;;4178482;28;20254;-62
2023/02/02 07:21:28;;;;;;;18.00;8.77;;;0.90;99.90;;;;;;4178128;28;20999;-62
2023/02/02 07:23:31;;;;;;;14.47;8.83;;;0.90;99.90;;;;;;4152708;28;20305;-62
2023/02/02 07:25:32;;;;;;;17.33;10.07;;;0.90;99.90;;;;;;4178908;28;20262;-61
2023/02/02 07:27:33;;;;;;;13.13;8.63;;;0.90;99.90;;;;;;4177707;28;20700;-64
2023/02/02 07:29:35;;;;;;;12.37;8.10;;;0.90;99.90;;;;;;4179502;28;20305;-63
2023/02/02 07:31:36;;;;;;;15.63;7.57;;;0.90;99.90;;;;;;4178648;28;20676;-61
2023/02/02 07:33:39;;;;;;;13.23;6.90;;;0.90;99.90;;;;;;4179947;28;20254;-66
2023/02/02 07:35:41;;;;;;;12.37;7.07;;;0.90;99.90;;;;;;4177444;28;20331;-66
2023/02/02 07:37:42;;;;;;;10.03;6.53;;;1.00;99.90;;;;;;4179022;28;20328;-67
2023/02/02 07:39:43;;;;;;;20.93;11.27;;;1.00;99.90;;;;;;4177839;28;20693;-62
2023/02/02 07:41:44;;;;;;;21.00;11.70;;;1.10;99.90;;;;;;4178743;28;20316;-61
2023/02/02 07:43:47;;;;;;;22.27;13.57;;;1.20;99.90;;;;;;4177205;28;20266;-60
2023/02/02 07:45:48;;;;;;;17.20;9.50;;;1.30;99.90;;;;;;4178236;28;20808;-63
2023/02/02 07:47:55;;;;;;;19.07;10.53;;;1.30;99.90;;;;;;4178189;28;20320;-64
2023/02/02 07:49:56;;;;;;;19.83;11.33;;;1.40;99.90;;;;;;4179110;28;20348;-66
2023/02/02 07:51:58;;;;;;;31.43;16.97;;;1.50;99.90;;;;;;4178186;28;20254;-67
2023/02/02 07:53:59;;;;;;;35.10;18.20;;;1.60;99.90;;;;;;4178833;28;20312;-62
2023/02/02 07:56:22;;;;;;;31.67;15.80;;;1.60;99.90;;;;;;4178854;28;20258;-62
2023/02/02 07:58:23;;;;;;;31.60;13.53;;;1.80;99.90;;;;;;4178945;28;20294;-62
2023/02/02 08:00:25;;;;;;;17.97;10.10;;;1.90;99.90;;;;;;4178497;28;20262;-61
2023/02/02 08:02:26;;;;;;;12.60;6.07;;;2.00;99.90;;;;;;4178492;28;20343;-66
2023/02/02 08:04:27;;;;;;;10.33;6.13;;;2.10;99.90;;;;;;4177815;28;20305;-67
2023/02/02 08:06:33;;;;;;;12.10;7.07;;;2.20;99.90;;;;;;4177776;28;20374;-62
2023/02/02 08:08:34;;;;;;;7.17;3.07;;;2.30;99.90;;;;;;4179173;28;20294;-62
2023/02/02 08:10:35;;;;;;;9.73;2.63;;;2.40;99.90;;;;;;4160156;28;20960;-65
2023/02/02 08:12:36;;;;;;;4.93;2.70;;;2.60;99.90;;;;;;4178838;28;20316;-61
2023/02/02 08:14:37;;;;;;;7.47;3.63;;;2.60;99.90;;;;;;4177942;28;20281;-60
2023/02/02 08:16:39;;;;;;;17.83;9.63;;;2.70;99.90;;;;;;4179058;28;20754;-66
2023/02/02 08:18:41;;;;;;;7.43;4.30;;;2.80;99.90;;;;;;4177802;28;20285;-62
2023/02/02 08:20:42;;;;;;;9.57;5.13;;;2.80;99.90;;;;;;4177743;28;20355;-62
2023/02/02 08:22:43;;;;;;;4.87;3.47;;;2.90;99.90;;;;;;4177766;28;20634;-63
2023/02/02 08:24:44;;;;;;;5.57;2.77;;;2.90;99.90;;;;;;4178669;28;20335;-62
2023/02/02 08:26:45;;;;;;;8.43;4.63;;;3.00;99.90;;;;;;4177428;28;20266;-68
2023/02/02 08:28:50;;;;;;;4.43;2.80;;;3.10;99.90;;;;;;4177295;28;20300;-62
2023/02/02 08:30:51;;;;;;;4.90;3.03;;;3.20;99.90;;;;;;4177400;28;20689;-63
2023/02/02 08:32:53;;;;;;;7.57;2.50;;;3.30;99.90;;;;;;4177286;28;20270;-62
2023/02/02 08:34:54;;;;;;;2.07;1.60;;;3.40;99.90;;;;;;4176616;28;20266;-65
2023/02/02 08:36:55;;;;;;;4.40;2.43;;;3.40;99.90;;;;;;4177248;28;20274;-61
2023/02/02 08:39:00;;;;;;;5.07;2.17;;;3.40;99.90;;;;;;4178765;28;20800;-61
2023/02/02 08:41:06;;;;;;;3.90;2.23;;;3.30;99.90;;;;;;4165640;28;20401;-62
2023/02/02 08:43:07;;;;;;;3.20;2.20;;;3.20;99.90;;;;;;4175600;28;20285;-62
2023/02/02 08:45:08;;;;;;;6.63;3.10;;;3.10;99.90;;;;;;4176381;28;20278;-67
2023/02/02 08:47:09;;;;;;;3.67;2.00;;;3.20;99.90;;;;;;4178617;28;20678;-62
2023/02/02 08:49:11;;;;;;;4.20;2.70;;;3.20;99.90;;;;;;4177007;28;20320;-61
2023/02/02 08:51:15;;;;;;;4.00;2.07;;;3.20;99.90;;;;;;4178116;28;20273;-62
2023/02/02 08:53:16;;;;;;;2.37;1.80;;;3.30;99.90;;;;;;4176631;28;20278;-61
2023/02/02 08:55:17;;;;;;;4.63;2.17;;;3.30;99.90;;;;;;4178518;28;20265;-61
2023/02/02 08:57:18;;;;;;;5.80;2.27;;;3.20;99.90;;;;;;4176096;28;20681;-61
2023/02/02 08:59:19;;;;;;;6.77;3.50;;;3.20;99.90;;;;;;4177212;28;20400;-62
2023/02/02 09:01:23;;;;;;;4.37;2.03;;;3.20;99.90;;;;;;4176133;28;20664;-61
2023/02/02 09:03:24;;;;;;;4.47;1.93;;;3.20;99.90;;;;;;4177124;28;20262;-66
2023/02/02 09:05:25;;;;;;;2.63;2.20;;;3.10;99.90;;;;;;4172701;28;20327;-62
2023/02/02 09:07:26;;;;;;;2.53;1.47;;;3.30;99.90;;;;;;4154137;28;20377;-62
2023/02/02 09:09:27;;;;;;;2.47;2.00;;;3.40;99.90;;;;;;4166570;28;20328;-64
2023/02/02 09:11:29;;;;;;;3.03;2.43;;;3.60;99.90;;;;;;4175240;28;20811;-62
2023/02/02 09:13:30;;;;;;;4.10;1.90;;;3.80;99.90;;;;;;4175675;28;20316;-63
2023/02/02 09:15:31;;;;;;;15.30;6.57;;;4.00;99.90;;;;;;4167821;28;20269;-61
2023/02/02 09:17:32;;;;;;;4.70;2.70;;;4.40;99.90;;;;;;4159662;28;20308;-63
2023/02/02 09:19:34;;;;;;;3.17;2.33;;;4.60;99.90;;;;;;4176811;28;20871;-66
2023/02/02 09:21:35;;;;;;;4.53;2.73;;;4.60;99.90;;;;;;4177296;28;20323;-62
2023/02/02 09:23:39;;;;;;;3.23;2.33;;;4.50;99.90;;;;;;4167670;28;20758;-65
2023/02/02 09:25:40;;;;;;;2.40;2.20;;;4.50;99.90;;;;;;4176989;28;20316;-64
2023/02/02 09:27:41;;;;;;;3.87;1.37;;;4.40;99.90;;;;;;4175023;28;20328;-61
2023/02/02 09:29:42;;;;;;;1.63;1.23;;;4.30;99.90;;;;;;4177934;28;20720;-61
2023/02/02 09:31:44;;;;;;;2.37;1.17;;;4.30;99.90;;;;;;4175432;28;20573;-62
2023/02/02 09:33:45;;;;;;;1.13;0.63;;;4.30;99.90;;;;;;4161202;28;20278;-61
2023/02/02 09:35:46;;;;;;;1.60;1.10;;;4.20;99.90;;;;;;4161059;28;20704;-61
2023/02/02 09:37:47;;;;;;;3.40;1.70;;;4.30;99.90;;;;;;4160533;28;20831;-61
2023/02/02 09:39:48;;;;;;;2.40;1.57;;;4.30;99.90;;;;;;4170470;28;20348;-62
2023/02/02 09:41:57;;;;;;;3.67;2.20;;;4.30;99.90;;;;;;4174956;28;20340;-61
2023/02/02 09:44:23;;;;;;;5.80;5.20;;;4.20;99.90;;;;;;4165142;28;20352;-61
2023/02/02 09:46:33;;;;;;;3.40;2.27;;;4.20;99.90;;;;;;4171266;28;20670;-62
2023/02/02 09:49:02;;;;;;;1.93;1.80;;;4.20;99.90;;;;;;4176868;28;20282;-62
2023/02/02 09:51:15;;;;;;;4.43;1.20;;;4.20;99.90;;;;;;4177159;28;20267;-65
2023/02/02 09:53:19;;;;;;;1.30;0.97;;;4.20;99.90;;;;;;4169100;28;20265;-67
2023/02/02 09:55:38;;;;;;;1.43;0.80;;;4.10;99.90;;;;;;4176855;28;20300;-63
2023/02/02 09:57:49;;;;;;;2.00;0.70;;;4.00;99.90;;;;;;4178891;28;20286;-63
2023/02/02 09:59:52;;;;;;;;;;;3.90;99.90;;;;;;4163003;28;20703;-62
2023/02/02 10:02:01;;;;;;;1.33;0.70;;;3.90;99.90;;;;;;4178830;28;19994;-62
2023/02/02 10:04:12;;;;;;;1.63;0.70;;;3.90;99.90;;;;;;4172872;28;20335;-62
2023/02/02 10:06:34;;;;;;;2.80;1.45;;;3.80;99.90;;;;;;4178204;28;20274;-62
2023/02/02 10:08:41;;;;;;;2.13;1.40;;;3.70;99.90;;;;;;4175007;28;20036;-69
2023/02/02 10:10:44;;;;;;;2.90;1.70;;;3.60;99.90;;;;;;4174613;28;20777;-62
2023/02/02 10:12:48;;;;;;;3.23;1.40;;;3.60;99.90;;;;;;4179886;28;20278;-66
2023/02/02 10:15:16;;;;;;;4.40;2.30;;;3.50;99.90;;;;;;4179689;28;20258;-63
2023/02/02 10:17:20;;;;;;;2.43;1.30;;;3.50;99.90;;;;;;4180975;28;20250;-65
2023/02/02 10:19:27;;;;;;;2.63;1.90;;;3.40;99.90;;;;;;4171926;28;20270;-64
2023/02/02 10:21:53;;;;;;;3.57;1.83;;;3.40;99.90;;;;;;4179860;28;20320;-63
2023/02/02 10:23:56;;;;;;;4.73;2.43;;;3.30;99.90;;;;;;4175699;28;20278;-62
2023/02/02 10:26:14;;;;;;;5.03;2.80;;;3.30;99.90;;;;;;4174045;28;20262;-62
2023/02/02 10:28:19;;;;;;;3.63;2.53;;;3.30;99.90;;;;;;4177653;28;20324;-67
2023/02/02 10:30:48;;;;;;;3.00;2.27;;;3.30;99.90;;;;;;4179913;28;20297;-62
2023/02/02 10:33:05;;;;;;;4.93;2.80;;;3.20;99.90;;;;;;4177443;28;20784;-65
2023/02/02 10:35:27;;;;;;;4.10;3.60;;;3.30;99.90;;;;;;4179460;28;20251;-62
2023/02/02 10:37:55;;;;;;;3.10;2.40;;;3.30;99.90;;;;;;4166860;28;20266;-66
2023/02/02 10:40:20;;;;;;;2.80;1.43;;;3.40;99.90;;;;;;4171248;28;20279;-62
2023/02/02 10:45:29;;;;;;;1.40;1.10;;;3.40;99.90;;;;;;4162277;28;20267;-62
2023/02/02 10:47:32;;;;;;;4.00;1.67;;;3.30;99.90;;;;;;4163503;28;20762;-69
2023/02/02 10:49:38;;;;;;;3.43;2.00;;;3.30;99.90;;;;;;4146941;28;20307;-62
2023/02/02 10:51:40;;;;;;;4.87;2.50;;;3.40;99.90;;;;;;4176945;28;20619;-63
2023/02/02 10:53:49;;;;;;;13.83;7.00;;;3.40;99.90;;;;;;4164081;28;20301;-63
2023/02/02 10:56:05;;;;;;;3.27;2.97;;;3.40;99.90;;;;;;4165354;28;20352;-66
2023/02/02 10:58:12;;;;;;;3.00;2.27;;;3.40;99.90;;;;;;4168247;28;20266;-63
2023/02/02 11:00:38;;;;;;;1.30;1.13;;;3.40;99.90;;;;;;4173026;28;20321;-66
2023/02/02 11:02:39;;;;;;;1.50;1.20;;;3.40;99.90;;;;;;4171774;28;20327;-61
2023/02/02 11:06:59;;;;;;;2.77;1.90;;;3.30;99.90;;;;;;4175021;28;20262;-62